createdAt,value
2023-09-15T00:01:04.192Z,8.50
2023-09-15T00:03:36.878Z,6.90
2023-09-15T00:06:05.314Z,4.90
2023-09-15T00:08:35.119Z,5.50
2023-09-15T00:11:03.127Z,3.20
2023-09-15T00:13:33.212Z,7.70
2023-09-15T00:16:01.208Z,6.70
2023-09-15T00:18:29.737Z,5.90
2023-09-15T00:20:57.594Z,4.60
2023-09-15T00:23:25.406Z,7.10
2023-09-15T00:25:55.895Z,5.40
2023-09-15T00:28:23.807Z,4.20
2023-09-15T00:30:51.699Z,4.60
2023-09-15T00:33:20.650Z,4.80
2023-09-15T00:35:48.570Z,6.80
2023-09-15T00:38:16.711Z,5.00
2023-09-15T00:40:44.467Z,6.90
2023-09-15T00:43:12.349Z,4.90
2023-09-15T00:45:40.506Z,7.00
2023-09-15T00:48:09.065Z,4.20
2023-09-15T00:50:37.045Z,5.80
2023-09-15T00:53:11.819Z,4.80
2023-09-15T00:55:39.940Z,4.60
2023-09-15T00:58:13.453Z,4.20
2023-09-15T01:00:43.745Z,8.10
2023-09-15T01:03:13.610Z,6.70
2023-09-15T01:05:43.016Z,5.00
2023-09-15T01:08:11.529Z,5.20
2023-09-15T01:10:39.851Z,4.80
2023-09-15T01:13:08.003Z,6.40
2023-09-15T01:15:47.308Z,4.00
2023-09-15T01:18:25.150Z,6.40
2023-09-15T01:21:15.015Z,6.00
2023-09-15T01:24:00.510Z,3.60
2023-09-15T01:26:53.578Z,4.80
2023-09-15T01:29:46.290Z,4.00
2023-09-15T01:32:17.469Z,9.10
2023-09-15T01:34:52.931Z,5.90
2023-09-15T01:37:23.036Z,6.10
2023-09-15T01:39:54.348Z,4.80
2023-09-15T01:42:24.664Z,3.60
2023-09-15T01:44:53.478Z,5.70
2023-09-15T01:47:23.219Z,4.70
2023-09-15T01:49:52.781Z,5.30
2023-09-15T01:52:23.992Z,3.60
2023-09-15T01:54:54.587Z,4.90
2023-09-15T01:57:23.316Z,6.40
2023-09-15T01:59:51.269Z,4.90
2023-09-15T02:02:19.126Z,6.40
2023-09-15T02:04:47.104Z,4.60
2023-09-15T02:07:14.974Z,3.40
2023-09-15T02:09:42.900Z,5.20
2023-09-15T02:12:10.979Z,3.80
2023-09-15T02:14:38.854Z,4.80
2023-09-15T02:17:07.681Z,5.00
2023-09-15T02:19:35.957Z,4.60
2023-09-15T02:22:05.474Z,5.60
2023-09-15T02:24:33.341Z,3.70
2023-09-15T02:27:01.662Z,7.20
2023-09-15T02:29:31.388Z,4.80
2023-09-15T02:36:18.770Z,6.50
2023-09-15T02:38:46.836Z,4.80
2023-09-15T02:41:14.902Z,5.40
2023-09-15T02:43:43.222Z,4.40
2023-09-15T02:46:11.347Z,4.80
2023-09-15T02:48:39.592Z,5.50
2023-09-15T02:51:08.910Z,4.50
2023-09-15T02:53:36.858Z,4.40
2023-09-15T02:56:06.139Z,5.20
2023-09-15T02:58:37.387Z,6.20
2023-09-15T03:01:15.916Z,4.50
2023-09-15T03:03:50.416Z,4.30
2023-09-15T03:06:18.551Z,5.50
2023-09-15T03:08:47.119Z,3.90
2023-09-15T03:11:18.129Z,4.50
2023-09-15T03:13:46.705Z,3.40
2023-09-15T03:16:15.133Z,4.50
2023-09-15T03:18:48.574Z,4.60
2023-09-15T03:21:20.765Z,4.30
2023-09-15T03:23:50.327Z,7.50
2023-09-15T03:26:18.624Z,3.80
2023-09-15T03:28:49.111Z,4.80
2023-09-15T03:31:17.868Z,4.00
2023-09-15T03:33:45.857Z,4.20
2023-09-15T03:36:13.979Z,7.20
2023-09-15T03:38:45.067Z,3.80
2023-09-15T03:41:13.485Z,5.80
2023-09-15T03:43:41.242Z,5.00
2023-09-15T03:46:10.125Z,4.30
2023-09-15T03:48:38.648Z,5.60
2023-09-15T03:51:06.516Z,5.10
2023-09-15T03:53:34.383Z,5.20
2023-09-15T03:56:02.552Z,4.70
2023-09-15T03:58:30.946Z,5.90
2023-09-15T04:00:58.817Z,5.60
2023-09-15T04:03:27.830Z,5.10
2023-09-15T04:05:55.759Z,4.50
2023-09-15T04:08:23.537Z,4.80
2023-09-15T04:10:51.367Z,6.40
2023-09-15T04:13:19.169Z,6.40
2023-09-15T04:15:46.953Z,6.40
2023-09-15T04:18:14.851Z,3.90
2023-09-15T04:20:46.608Z,5.40
2023-09-15T04:23:16.109Z,5.60
2023-09-15T04:25:44.459Z,6.30
2023-09-15T04:28:14.429Z,7.50
2023-09-15T04:30:43.807Z,5.40
2023-09-15T04:33:16.704Z,6.80
2023-09-15T04:35:45.365Z,4.60
2023-09-15T04:38:13.253Z,4.50
2023-09-15T04:40:42.797Z,5.60
2023-09-15T04:43:10.908Z,5.00
2023-09-15T04:45:39.744Z,6.80
2023-09-15T04:48:08.042Z,4.20
2023-09-15T04:50:39.079Z,5.20
2023-09-15T04:53:08.500Z,5.40
2023-09-15T04:55:36.859Z,4.60
2023-09-15T04:58:05.096Z,6.50
2023-09-15T05:00:35.982Z,4.30
2023-09-15T05:03:05.917Z,6.30
2023-09-15T05:05:33.912Z,5.90
2023-09-15T05:08:01.843Z,7.60
2023-09-15T05:10:30.294Z,6.30
2023-09-15T05:12:58.342Z,6.80
2023-09-15T05:15:26.778Z,5.70
2023-09-15T05:17:54.902Z,5.80
2023-09-15T05:20:22.868Z,6.40
2023-09-15T05:22:50.680Z,6.50
2023-09-15T05:25:18.501Z,9.60
2023-09-15T05:27:46.912Z,5.20
2023-09-15T05:30:16.537Z,9.40
2023-09-15T05:32:44.624Z,6.60
2023-09-15T05:35:12.478Z,5.80
2023-09-15T05:37:40.356Z,7.70
2023-09-15T05:40:09.515Z,6.50
2023-09-15T05:42:37.519Z,6.90
2023-09-15T05:45:05.926Z,6.70
2023-09-15T05:47:34.518Z,5.80
2023-09-15T05:50:05.545Z,10.30
2023-09-15T05:52:33.713Z,7.50
2023-09-15T05:55:01.618Z,6.90
2023-09-15T05:57:29.424Z,9.40
2023-09-15T05:59:57.379Z,10.10
2023-09-15T06:02:25.599Z,8.70
2023-09-15T06:04:54.671Z,9.60
2023-09-15T06:07:22.801Z,10.40
2023-09-15T06:09:50.651Z,11.20
2023-09-15T06:12:18.489Z,9.20
2023-09-15T06:14:46.712Z,9.00
2023-09-15T06:17:14.582Z,10.00
2023-09-15T06:19:42.404Z,10.80
2023-09-15T06:22:10.179Z,10.80
2023-09-15T06:24:38.040Z,10.30
2023-09-15T06:27:05.815Z,11.50
2023-09-15T06:29:35.005Z,12.80
2023-09-15T06:32:03.281Z,10.80
2023-09-15T06:34:31.330Z,11.60
2023-09-15T06:36:59.160Z,13.50
2023-09-15T06:39:27.900Z,13.10
2023-09-15T06:41:55.760Z,16.40
2023-09-15T06:44:24.296Z,8.30
2023-09-15T06:46:52.375Z,11.20
2023-09-15T06:49:23.155Z,6.10
2023-09-15T06:51:51.275Z,10.80
2023-09-15T06:54:19.043Z,8.30
2023-09-15T06:56:46.868Z,10.00
2023-09-15T06:59:14.921Z,9.70
2023-09-15T07:01:42.758Z,8.70
2023-09-15T07:04:14.303Z,7.40
2023-09-15T07:06:42.298Z,6.30
2023-09-15T07:09:10.128Z,10.90
2023-09-15T07:11:38.011Z,9.80
2023-09-15T07:14:05.882Z,10.50
2023-09-15T07:16:34.095Z,6.90
2023-09-15T07:19:01.955Z,11.30
2023-09-15T07:21:29.777Z,6.50
2023-09-15T07:24:00.428Z,7.00
2023-09-15T07:26:29.783Z,7.70
2023-09-15T07:28:57.764Z,7.90
2023-09-15T07:31:25.668Z,8.60
2023-09-15T07:33:53.736Z,8.20
2023-09-15T07:36:21.551Z,7.50
2023-09-15T07:38:49.367Z,7.20
2023-09-15T07:41:17.109Z,8.30
2023-09-15T07:43:44.980Z,7.10
2023-09-15T07:46:16.594Z,9.20
2023-09-15T07:48:44.560Z,8.40
2023-09-15T07:51:13.298Z,7.00
2023-09-15T07:53:41.115Z,12.80
2023-09-15T07:56:08.886Z,8.30
2023-09-15T07:58:36.702Z,7.40
2023-09-15T08:01:06.109Z,9.30
2023-09-15T08:03:33.982Z,6.90
2023-09-15T08:06:03.110Z,7.00
2023-09-15T08:08:31.208Z,8.50
2023-09-15T08:10:58.948Z,7.40
2023-09-15T08:13:27.162Z,8.30
2023-09-15T08:15:56.003Z,7.50
2023-09-15T08:18:24.217Z,7.00
2023-09-15T08:20:52.007Z,7.20
2023-09-15T08:23:19.842Z,9.10
2023-09-15T08:25:47.788Z,9.30
2023-09-15T08:28:15.921Z,8.00
2023-09-15T08:30:47.700Z,9.60
2023-09-15T08:35:43.323Z,6.90
2023-09-15T08:38:12.187Z,9.20
2023-09-15T08:40:48.882Z,6.80
2023-09-15T08:43:17.504Z,6.40
2023-09-15T08:45:48.622Z,5.30
2023-09-15T08:48:23.187Z,5.80
2023-09-15T08:50:52.586Z,5.70
2023-09-15T08:53:20.931Z,5.60
2023-09-15T08:55:48.894Z,7.50
2023-09-15T08:58:16.956Z,8.70
2023-09-15T09:00:45.859Z,7.80
2023-09-15T09:03:16.689Z,4.10
2023-09-15T09:05:48.171Z,7.60
2023-09-15T09:08:17.888Z,4.60
2023-09-15T09:10:50.052Z,5.20
2023-09-15T09:13:33.619Z,4.10
2023-09-15T09:16:12.062Z,5.60
2023-09-15T09:18:39.970Z,3.70
2023-09-15T09:21:07.750Z,5.20
2023-09-15T09:23:35.654Z,5.90
2023-09-15T09:26:12.288Z,4.00
2023-09-15T09:28:40.841Z,6.50
2023-09-15T09:31:12.277Z,3.50
2023-09-15T09:33:43.273Z,4.50
2023-09-15T09:36:17.912Z,6.40
2023-09-15T09:38:48.210Z,4.90
2023-09-15T09:41:27.505Z,4.20
2023-09-15T09:43:56.801Z,5.10
2023-09-15T09:46:25.103Z,3.80
2023-09-15T09:48:53.468Z,2.70
2023-09-15T09:51:22.341Z,3.30
2023-09-15T09:53:54.095Z,2.90
2023-09-15T09:56:23.848Z,3.70
2023-09-15T09:58:51.607Z,9.20
2023-09-15T10:01:19.477Z,4.80
2023-09-15T10:03:47.753Z,2.40
2023-09-15T10:06:15.920Z,3.00
2023-09-15T10:08:46.974Z,3.60
2023-09-15T10:11:15.508Z,5.00
2023-09-15T10:13:43.614Z,3.40
2023-09-15T10:20:31.919Z,2.50
2023-09-15T10:23:00.416Z,2.40
2023-09-15T10:25:28.282Z,4.10
2023-09-15T10:27:56.330Z,2.50
2023-09-15T10:30:24.366Z,3.10
2023-09-15T10:32:52.293Z,4.80
2023-09-15T10:35:20.277Z,3.40
2023-09-15T10:37:48.560Z,3.50
2023-09-15T10:40:16.355Z,4.10
2023-09-15T10:42:49.631Z,4.40
2023-09-15T10:45:18.000Z,3.40
2023-09-15T10:47:56.743Z,4.70
2023-09-15T10:50:34.997Z,4.40
2023-09-15T10:53:10.258Z,3.00
2023-09-15T10:55:38.772Z,3.60
2023-09-15T10:58:06.641Z,5.70
2023-09-15T11:00:34.966Z,2.00
2023-09-15T11:03:05.175Z,2.80
2023-09-15T11:05:33.829Z,4.20
2023-09-15T11:08:02.167Z,1.80
2023-09-15T11:10:33.168Z,3.10
2023-09-15T11:13:04.975Z,3.30
2023-09-15T11:15:34.442Z,3.90
2023-09-15T11:18:03.347Z,2.10
2023-09-15T11:20:31.565Z,4.10
2023-09-15T11:22:59.451Z,3.90
2023-09-15T11:25:27.236Z,3.10
2023-09-15T11:27:55.420Z,2.90
2023-09-15T11:30:27.742Z,3.00
2023-09-15T11:32:56.357Z,2.60
2023-09-15T11:35:25.648Z,3.70
2023-09-15T11:37:54.226Z,2.40
2023-09-15T11:40:23.217Z,2.00
2023-09-15T11:43:00.796Z,2.60
2023-09-15T11:45:30.147Z,2.10
2023-09-15T11:48:00.279Z,2.10
2023-09-15T11:50:29.687Z,3.30
2023-09-15T11:52:57.586Z,2.60
2023-09-15T11:55:27.003Z,1.50
2023-09-15T11:58:00.114Z,2.60
2023-09-15T12:00:31.681Z,2.60
2023-09-15T12:03:00.729Z,1.50
2023-09-15T12:05:29.674Z,2.60
2023-09-15T12:07:58.907Z,1.80
2023-09-15T12:10:26.800Z,4.60
2023-09-15T12:12:58.559Z,3.80
2023-09-15T12:15:27.676Z,1.70
2023-09-15T12:17:57.410Z,3.80
2023-09-15T12:20:25.720Z,6.30
2023-09-15T12:22:53.969Z,4.70
2023-09-15T12:25:22.362Z,2.70
2023-09-15T12:27:50.225Z,3.00
2023-09-15T12:30:19.815Z,2.40
2023-09-15T12:32:48.940Z,4.20
2023-09-15T12:35:16.993Z,4.30
2023-09-15T12:37:46.364Z,2.50
2023-09-15T12:40:15.807Z,3.30
2023-09-15T12:42:45.061Z,6.10
2023-09-15T12:45:15.491Z,1.10
2023-09-15T12:47:43.490Z,4.90
2023-09-15T12:50:13.565Z,2.30
2023-09-15T12:52:41.825Z,3.70
2023-09-15T12:55:09.911Z,4.10
2023-09-15T12:57:37.745Z,4.30
2023-09-15T13:00:07.706Z,4.50
2023-09-15T13:02:35.978Z,5.10
2023-09-15T13:05:06.234Z,3.70
2023-09-15T13:07:37.937Z,3.50
2023-09-15T13:10:06.649Z,6.60
2023-09-15T13:12:34.654Z,5.10
2023-09-15T13:15:04.496Z,2.30
2023-09-15T13:17:32.320Z,2.20
2023-09-15T13:20:03.045Z,4.70
2023-09-15T13:22:30.888Z,3.20
2023-09-15T13:24:58.647Z,4.50
2023-09-15T13:27:26.942Z,1.80
2023-09-15T13:29:58.590Z,2.20
2023-09-15T13:32:27.749Z,2.30
2023-09-15T13:34:55.917Z,2.30
2023-09-15T13:37:24.059Z,1.60
2023-09-15T13:39:51.907Z,2.90
2023-09-15T13:42:33.916Z,2.10
2023-09-15T13:45:03.093Z,3.00
2023-09-15T13:47:35.287Z,1.90
2023-09-15T13:50:06.844Z,2.50
2023-09-15T13:55:03.405Z,2.10
2023-09-15T13:57:31.275Z,1.60
2023-09-15T13:59:59.191Z,2.80
2023-09-15T14:02:27.622Z,3.30
2023-09-15T14:04:56.248Z,5.20
2023-09-15T14:07:25.227Z,4.20
2023-09-15T14:09:53.051Z,6.30
2023-09-15T14:12:20.994Z,4.40
2023-09-15T14:14:48.907Z,6.60
2023-09-15T14:17:16.683Z,4.90
2023-09-15T14:19:44.576Z,4.50
2023-09-15T14:22:12.428Z,3.60
2023-09-15T14:24:40.452Z,4.40
2023-09-15T14:27:08.344Z,4.10
2023-09-15T14:29:36.925Z,3.20
2023-09-15T14:32:04.961Z,3.80
2023-09-15T14:34:33.100Z,3.00
2023-09-15T14:37:01.605Z,5.70
2023-09-15T14:39:29.717Z,5.50
2023-09-15T14:41:58.212Z,4.20
2023-09-15T14:44:26.042Z,4.00
2023-09-15T14:46:55.347Z,2.40
2023-09-15T14:49:27.156Z,4.40
2023-09-15T14:51:55.290Z,3.80
2023-09-15T14:54:23.149Z,2.50
2023-09-15T14:56:54.087Z,3.40
2023-09-15T14:59:22.102Z,3.60
2023-09-15T15:01:49.945Z,4.60
2023-09-15T15:04:17.884Z,2.80
2023-09-15T15:06:45.855Z,5.80
2023-09-15T15:09:15.646Z,2.70
2023-09-15T15:11:45.363Z,3.00
2023-09-15T15:14:13.407Z,3.00
2023-09-15T15:16:41.286Z,3.60
2023-09-15T15:19:09.339Z,3.20
2023-09-15T15:21:37.509Z,4.20
2023-09-15T15:24:05.336Z,5.50
2023-09-15T15:26:33.180Z,2.40
2023-09-15T15:29:01.082Z,3.40
2023-09-15T15:31:28.997Z,6.10
2023-09-15T15:33:57.814Z,6.60
2023-09-15T15:36:27.770Z,3.00
2023-09-15T15:38:55.606Z,3.50
2023-09-15T15:41:23.556Z,2.60
2023-09-15T15:43:51.676Z,4.30
2023-09-15T15:46:20.979Z,5.70
2023-09-15T15:48:49.333Z,6.30
2023-09-15T15:51:17.769Z,6.70
2023-09-15T15:53:45.687Z,7.80
2023-09-15T15:56:13.592Z,8.20
2023-09-15T15:58:41.596Z,9.20
2023-09-15T16:01:09.754Z,12.10
2023-09-15T16:03:38.085Z,9.00
2023-09-15T16:06:06.274Z,9.90
2023-09-15T16:08:34.134Z,9.20
2023-09-15T16:11:03.490Z,10.10
2023-09-15T16:13:35.812Z,8.40
2023-09-15T16:16:05.589Z,10.40
2023-09-15T16:18:33.650Z,9.50
2023-09-15T16:21:01.669Z,11.60
2023-09-15T16:23:29.552Z,12.40
2023-09-15T16:25:59.332Z,13.00
2023-09-15T16:28:29.323Z,20.00
2023-09-15T16:30:57.262Z,12.50
2023-09-15T16:33:25.363Z,10.70
2023-09-15T16:36:06.878Z,9.80
2023-09-15T16:38:34.815Z,12.40
2023-09-15T16:41:02.702Z,16.80
2023-09-15T16:43:32.705Z,12.70
2023-09-15T16:46:00.744Z,9.70
2023-09-15T16:48:30.924Z,8.80
2023-09-15T16:50:59.183Z,9.80
2023-09-15T16:53:26.982Z,7.60
2023-09-15T16:55:55.626Z,9.50
2023-09-15T16:58:23.551Z,7.70
2023-09-15T17:00:55.073Z,7.40
2023-09-15T17:03:23.093Z,8.10
2023-09-15T17:05:51.460Z,7.10
2023-09-15T17:08:20.057Z,9.90
2023-09-15T17:10:48.250Z,7.50
2023-09-15T17:13:16.084Z,5.60
2023-09-15T17:15:49.072Z,6.30
2023-09-15T17:18:17.047Z,5.90
2023-09-15T17:20:44.950Z,7.20
2023-09-15T17:23:12.715Z,6.20
2023-09-15T17:25:40.527Z,6.80
2023-09-15T17:28:08.521Z,7.20
2023-09-15T17:30:36.357Z,6.80
2023-09-15T17:33:04.662Z,5.10
2023-09-15T17:35:32.533Z,6.40
2023-09-15T17:38:00.324Z,5.80
2023-09-15T17:40:28.062Z,5.90
2023-09-15T17:42:55.972Z,6.20
2023-09-15T17:45:24.973Z,7.00
2023-09-15T17:47:53.041Z,7.80
2023-09-15T17:50:21.078Z,6.10
2023-09-15T17:52:50.756Z,6.30
2023-09-15T17:55:20.374Z,5.00
2023-09-15T17:57:49.915Z,4.80
2023-09-15T18:00:20.547Z,4.90
2023-09-15T18:02:48.742Z,5.40
2023-09-15T18:05:17.070Z,7.50
2023-09-15T18:07:45.140Z,5.10
2023-09-15T18:10:13.108Z,6.20
2023-09-15T18:12:40.906Z,4.60
2023-09-15T18:15:11.574Z,3.50
2023-09-15T18:17:39.709Z,7.00
2023-09-15T18:20:10.537Z,5.60
2023-09-15T18:22:39.935Z,5.60
2023-09-15T18:25:09.840Z,6.10
2023-09-15T18:27:39.435Z,7.10
2023-09-15T18:30:07.931Z,3.70
2023-09-15T18:32:37.431Z,5.20
2023-09-15T18:35:06.195Z,4.80
2023-09-15T18:37:34.459Z,4.80
2023-09-15T18:40:02.709Z,6.00
2023-09-15T18:42:30.671Z,5.00
2023-09-15T18:44:58.402Z,5.20
2023-09-15T18:47:26.210Z,3.70
2023-09-15T18:49:54.267Z,3.60
2023-09-15T18:52:22.119Z,4.50
2023-09-15T18:54:49.971Z,3.80
2023-09-15T18:57:17.955Z,3.60
2023-09-15T18:59:46.496Z,4.10
2023-09-15T19:02:15.464Z,5.90
2023-09-15T19:04:43.263Z,2.60
2023-09-15T19:07:11.169Z,2.40
2023-09-15T19:09:39.016Z,3.10
2023-09-15T19:12:08.410Z,3.60
2023-09-15T19:14:37.713Z,2.50
2023-09-15T19:17:05.601Z,3.90
2023-09-15T19:19:33.506Z,3.10
2023-09-15T19:22:01.378Z,2.60
2023-09-15T19:24:30.922Z,3.20
2023-09-15T19:26:58.823Z,4.40
2023-09-15T19:29:27.819Z,2.90
2023-09-15T19:31:55.617Z,3.60
2023-09-15T19:34:23.693Z,4.80
2023-09-15T19:36:51.656Z,2.60
2023-09-15T19:39:19.480Z,2.00
2023-09-15T19:41:47.258Z,3.10
2023-09-15T19:44:15.581Z,3.40
2023-09-15T19:46:43.486Z,2.90
2023-09-15T19:49:11.311Z,3.80
2023-09-15T19:51:39.444Z,2.50
2023-09-15T19:54:07.423Z,5.60
2023-09-15T19:56:35.252Z,3.80
2023-09-15T19:59:03.055Z,3.40
2023-09-15T20:01:30.869Z,3.30
2023-09-15T20:03:58.756Z,3.80
2023-09-15T20:06:26.633Z,4.20
2023-09-15T20:08:59.507Z,3.20
2023-09-15T20:11:27.451Z,4.70
2023-09-15T20:13:57.662Z,3.00
2023-09-15T20:16:29.436Z,3.20
2023-09-15T20:18:57.415Z,4.80
2023-09-15T20:21:28.517Z,2.70
2023-09-15T20:23:59.379Z,2.20
2023-09-15T20:26:27.300Z,3.20
2023-09-15T20:28:57.122Z,2.70
2023-09-15T20:31:25.466Z,4.00
2023-09-15T20:33:53.225Z,3.30
2023-09-15T20:36:21.493Z,3.20
2023-09-15T20:38:49.536Z,2.60
2023-09-15T20:41:17.894Z,3.00
2023-09-15T20:43:45.654Z,2.10
2023-09-15T20:46:13.746Z,2.30
2023-09-15T20:48:44.339Z,2.70
2023-09-15T20:51:12.463Z,2.80
2023-09-15T20:53:40.307Z,3.00
2023-09-15T20:56:08.114Z,4.20
2023-09-15T20:58:37.679Z,2.90
2023-09-15T21:01:07.768Z,3.60
2023-09-15T21:03:37.047Z,2.30
2023-09-15T21:06:06.382Z,4.20
2023-09-15T21:08:34.156Z,3.60
2023-09-15T21:11:02.257Z,3.40
2023-09-15T21:13:30.228Z,3.40
2023-09-15T21:15:58.997Z,2.60
2023-09-15T21:18:26.964Z,1.80
2023-09-15T21:20:54.911Z,2.70
2023-09-15T21:23:22.681Z,3.40
2023-09-15T21:25:50.443Z,2.40
2023-09-15T21:28:18.590Z,2.80
2023-09-15T21:30:47.857Z,2.80
2023-09-15T21:33:16.646Z,3.80
2023-09-15T21:35:46.717Z,4.60
2023-09-15T21:38:15.532Z,2.90
2023-09-15T21:40:43.405Z,3.30
2023-09-15T21:43:11.237Z,3.70
2023-09-15T21:45:39.202Z,3.30
2023-09-15T21:48:07.604Z,3.30
2023-09-15T21:50:35.480Z,4.40
2023-09-15T21:53:05.754Z,3.90
2023-09-15T21:55:34.426Z,5.60
2023-09-15T21:58:02.293Z,2.90
2023-09-15T22:00:36.401Z,3.30
2023-09-15T22:03:04.705Z,4.20
2023-09-15T22:05:33.261Z,4.80
2023-09-15T22:08:03.830Z,4.50
2023-09-15T22:10:32.132Z,4.80
2023-09-15T22:13:00.010Z,5.00
2023-09-15T22:15:28.076Z,5.20
2023-09-15T22:17:55.930Z,6.20
2023-09-15T22:20:27.837Z,4.20
2023-09-15T22:25:28.257Z,5.30
2023-09-15T22:27:56.177Z,6.90
2023-09-15T22:30:24.072Z,4.80
2023-09-15T22:32:52.832Z,5.40
2023-09-15T22:35:21.760Z,5.10
2023-09-15T22:37:50.487Z,5.80
2023-09-15T22:40:18.462Z,6.50
2023-09-15T22:42:46.253Z,5.90
2023-09-15T22:45:24.819Z,7.10
2023-09-15T22:47:59.146Z,5.30
2023-09-15T22:50:27.447Z,8.40
2023-09-15T22:52:55.289Z,9.40
2023-09-15T22:55:24.564Z,5.70
2023-09-15T22:57:52.435Z,5.70
2023-09-15T23:00:20.430Z,5.60
2023-09-15T23:02:50.821Z,6.50
2023-09-15T23:05:20.830Z,6.50
2023-09-15T23:07:48.704Z,4.50
2023-09-15T23:10:17.545Z,6.40
2023-09-15T23:12:45.551Z,10.50
2023-09-15T23:15:13.946Z,4.80
2023-09-15T23:17:41.838Z,6.10
2023-09-15T23:20:09.840Z,7.90
2023-09-15T23:22:37.719Z,6.30
2023-09-15T23:25:06.229Z,6.20
2023-09-15T23:27:35.325Z,6.20
2023-09-15T23:30:04.618Z,8.40
2023-09-15T23:32:33.326Z,6.50
2023-09-15T23:35:01.907Z,14.70
2023-09-15T23:37:30.085Z,6.10
2023-09-15T23:39:58.177Z,5.30
2023-09-15T23:42:26.155Z,9.10
2023-09-15T23:44:54.041Z,7.50
2023-09-15T23:47:21.906Z,6.80
2023-09-15T23:49:49.799Z,7.80
2023-09-15T23:52:17.566Z,5.00
2023-09-15T23:54:45.433Z,6.70
2023-09-15T23:57:13.332Z,8.90
2023-09-15T23:59:41.188Z,6.90
